sensor_id;sensor_type;location;lat;lon;timestamp;P1;durP1;ratioP1;P2;durP2;ratioP2
5393;SDS011;2720;52.396;10.064;2022-12-24T00:01:37;24.30;;;9.53;;
5393;SDS011;2720;52.396;10.064;2022-12-24T00:04:04;25.03;;;9.53;;
5393;SDS011;2720;52.396;10.064;2022-12-24T00:06:31;17.40;;;8.47;;
5393;SDS011;2720;52.396;10.064;2022-12-24T00:08:58;18.77;;;8.63;;
5393;SDS011;2720;52.396;10.064;2022-12-24T00:11:25;32.20;;;10.47;;
5393;SDS011;2720;52.396;10.064;2022-12-24T00:13:53;24.53;;;8.83;;
5393;SDS011;2720;52.396;10.064;2022-12-24T00:16:21;25.10;;;9.60;;
5393;SDS011;2720;52.396;10.064;2022-12-24T00:18:48;20.97;;;9.10;;
5393;SDS011;2720;52.396;10.064;2022-12-24T00:21:15;18.17;;;8.57;;
5393;SDS011;2720;52.396;10.064;2022-12-24T00:23:42;17.93;;;7.83;;
5393;SDS011;2720;52.396;10.064;2022-12-24T00:26:09;15.00;;;6.77;;
5393;SDS011;2720;52.396;10.064;2022-12-24T00:28:36;18.83;;;8.20;;
5393;SDS011;2720;52.396;10.064;2022-12-24T00:31:07;20.47;;;8.43;;
5393;SDS011;2720;52.396;10.064;2022-12-24T00:33:37;19.97;;;8.70;;
5393;SDS011;2720;52.396;10.064;2022-12-24T00:36:05;22.20;;;8.87;;
5393;SDS011;2720;52.396;10.064;2022-12-24T00:38:32;22.83;;;9.50;;
5393;SDS011;2720;52.396;10.064;2022-12-24T00:40:59;13.90;;;7.17;;
5393;SDS011;2720;52.396;10.064;2022-12-24T00:43:27;23.43;;;9.73;;
5393;SDS011;2720;52.396;10.064;2022-12-24T00:45:55;20.30;;;8.37;;
5393;SDS011;2720;52.396;10.064;2022-12-24T00:48:22;24.57;;;9.20;;
5393;SDS011;2720;52.396;10.064;2022-12-24T00:50:51;23.40;;;8.97;;
5393;SDS011;2720;52.396;10.064;2022-12-24T00:53:18;21.00;;;9.10;;
5393;SDS011;2720;52.396;10.064;2022-12-24T00:55:45;21.83;;;9.80;;
5393;SDS011;2720;52.396;10.064;2022-12-24T00:58:12;27.00;;;9.80;;
5393;SDS011;2720;52.396;10.064;2022-12-24T01:00:39;23.43;;;10.40;;
5393;SDS011;2720;52.396;10.064;2022-12-24T01:03:06;34.43;;;11.07;;
5393;SDS011;2720;52.396;10.064;2022-12-24T01:05:33;23.43;;;10.07;;
5393;SDS011;2720;52.396;10.064;2022-12-24T01:08:43;28.43;;;8.70;;
5393;SDS011;2720;52.396;10.064;2022-12-24T01:11:11;21.90;;;9.57;;
5393;SDS011;2720;52.396;10.064;2022-12-24T01:13:38;29.57;;;10.13;;
5393;SDS011;2720;52.396;10.064;2022-12-24T01:16:12;29.53;;;10.00;;
5393;SDS011;2720;52.396;10.064;2022-12-24T01:18:40;22.77;;;10.43;;
5393;SDS011;2720;52.396;10.064;2022-12-24T01:21:07;23.83;;;9.30;;
5393;SDS011;2720;52.396;10.064;2022-12-24T01:23:35;23.40;;;8.90;;
5393;SDS011;2720;52.396;10.064;2022-12-24T01:26:04;25.63;;;8.50;;
5393;SDS011;2720;52.396;10.064;2022-12-24T01:28:31;19.53;;;10.00;;
5393;SDS011;2720;52.396;10.064;2022-12-24T01:30:59;23.10;;;8.30;;
5393;SDS011;2720;52.396;10.064;2022-12-24T01:33:27;18.97;;;7.73;;
5393;SDS011;2720;52.396;10.064;2022-12-24T01:35:54;20.43;;;8.87;;
5393;SDS011;2720;52.396;10.064;2022-12-24T01:38:21;22.97;;;9.00;;
5393;SDS011;2720;52.396;10.064;2022-12-24T01:40:49;16.80;;;7.40;;
5393;SDS011;2720;52.396;10.064;2022-12-24T01:43:35;17.97;;;8.40;;
5393;SDS011;2720;52.396;10.064;2022-12-24T01:46:02;20.07;;;8.30;;
5393;SDS011;2720;52.396;10.064;2022-12-24T01:48:32;21.00;;;8.10;;
5393;SDS011;2720;52.396;10.064;2022-12-24T01:51:02;18.10;;;7.83;;
5393;SDS011;2720;52.396;10.064;2022-12-24T01:53:30;18.97;;;7.13;;
5393;SDS011;2720;52.396;10.064;2022-12-24T01:55:59;17.77;;;7.43;;
5393;SDS011;2720;52.396;10.064;2022-12-24T01:58:26;22.40;;;8.43;;
5393;SDS011;2720;52.396;10.064;2022-12-24T02:00:55;20.47;;;7.63;;
5393;SDS011;2720;52.396;10.064;2022-12-24T02:03:22;14.97;;;7.50;;
5393;SDS011;2720;52.396;10.064;2022-12-24T02:05:50;16.20;;;8.30;;
5393;SDS011;2720;52.396;10.064;2022-12-24T02:08:18;16.27;;;7.37;;
5393;SDS011;2720;52.396;10.064;2022-12-24T02:10:46;22.37;;;9.97;;
5393;SDS011;2720;52.396;10.064;2022-12-24T02:13:13;23.67;;;9.93;;
5393;SDS011;2720;52.396;10.064;2022-12-24T02:15:45;19.00;;;9.03;;
5393;SDS011;2720;52.396;10.064;2022-12-24T02:18:18;20.40;;;9.23;;
5393;SDS011;2720;52.396;10.064;2022-12-24T02:20:53;16.03;;;8.60;;
5393;SDS011;2720;52.396;10.064;2022-12-24T02:23:32;20.30;;;9.40;;
5393;SDS011;2720;52.396;10.064;2022-12-24T02:26:13;22.07;;;9.10;;
5393;SDS011;2720;52.396;10.064;2022-12-24T02:28:48;22.10;;;9.07;;
5393;SDS011;2720;52.396;10.064;2022-12-24T02:31:23;22.03;;;9.30;;
5393;SDS011;2720;52.396;10.064;2022-12-24T02:33:54;21.77;;;9.60;;
5393;SDS011;2720;52.396;10.064;2022-12-24T02:36:24;27.17;;;10.60;;
5393;SDS011;2720;52.396;10.064;2022-12-24T02:38:55;21.77;;;10.47;;
5393;SDS011;2720;52.396;10.064;2022-12-24T02:41:25;24.40;;;9.80;;
5393;SDS011;2720;52.396;10.064;2022-12-24T02:44:15;21.50;;;10.00;;
5393;SDS011;2720;52.396;10.064;2022-12-24T02:46:44;20.93;;;8.90;;
5393;SDS011;2720;52.396;10.064;2022-12-24T02:49:12;36.57;;;10.90;;
5393;SDS011;2720;52.396;10.064;2022-12-24T02:51:39;25.87;;;9.67;;
5393;SDS011;2720;52.396;10.064;2022-12-24T02:54:07;29.40;;;11.67;;
5393;SDS011;2720;52.396;10.064;2022-12-24T02:56:44;20.20;;;9.60;;
5393;SDS011;2720;52.396;10.064;2022-12-24T02:59:19;31.20;;;10.23;;
5393;SDS011;2720;52.396;10.064;2022-12-24T03:01:52;26.50;;;11.43;;
5393;SDS011;2720;52.396;10.064;2022-12-24T03:04:28;27.13;;;11.20;;
5393;SDS011;2720;52.396;10.064;2022-12-24T03:07:05;25.93;;;11.10;;
5393;SDS011;2720;52.396;10.064;2022-12-24T03:09:36;28.00;;;9.90;;
5393;SDS011;2720;52.396;10.064;2022-12-24T03:12:08;21.87;;;10.80;;
5393;SDS011;2720;52.396;10.064;2022-12-24T03:14:37;26.83;;;11.83;;
5393;SDS011;2720;52.396;10.064;2022-12-24T03:17:07;23.13;;;9.83;;
5393;SDS011;2720;52.396;10.064;2022-12-24T03:19:34;32.23;;;12.30;;
5393;SDS011;2720;52.396;10.064;2022-12-24T03:22:03;23.40;;;10.33;;
5393;SDS011;2720;52.396;10.064;2022-12-24T03:24:33;20.37;;;9.20;;
5393;SDS011;2720;52.396;10.064;2022-12-24T03:27:00;19.20;;;9.00;;
5393;SDS011;2720;52.396;10.064;2022-12-24T03:29:29;22.20;;;9.83;;
5393;SDS011;2720;52.396;10.064;2022-12-24T03:31:58;21.67;;;9.93;;
5393;SDS011;2720;52.396;10.064;2022-12-24T03:34:28;22.40;;;10.37;;
5393;SDS011;2720;52.396;10.064;2022-12-24T03:36:55;38.63;;;10.77;;
5393;SDS011;2720;52.396;10.064;2022-12-24T03:39:22;18.00;;;9.37;;
5393;SDS011;2720;52.396;10.064;2022-12-24T03:41:49;22.20;;;10.00;;
5393;SDS011;2720;52.396;10.064;2022-12-24T03:44:17;23.27;;;10.03;;
5393;SDS011;2720;52.396;10.064;2022-12-24T03:46:44;22.90;;;8.40;;
5393;SDS011;2720;52.396;10.064;2022-12-24T03:49:11;25.57;;;9.30;;
5393;SDS011;2720;52.396;10.064;2022-12-24T03:51:39;24.90;;;10.00;;
5393;SDS011;2720;52.396;10.064;2022-12-24T03:54:06;28.17;;;10.37;;
5393;SDS011;2720;52.396;10.064;2022-12-24T03:56:33;23.97;;;11.43;;
5393;SDS011;2720;52.396;10.064;2022-12-24T03:59:00;43.43;;;11.63;;
5393;SDS011;2720;52.396;10.064;2022-12-24T04:01:27;22.40;;;8.57;;
5393;SDS011;2720;52.396;10.064;2022-12-24T04:03:54;25.43;;;9.53;;
5393;SDS011;2720;52.396;10.064;2022-12-24T04:06:21;28.47;;;9.67;;
5393;SDS011;2720;52.396;10.064;2022-12-24T04:08:49;33.20;;;9.00;;
5393;SDS011;2720;52.396;10.064;2022-12-24T04:11:16;23.50;;;9.10;;
5393;SDS011;2720;52.396;10.064;2022-12-24T04:13:44;22.47;;;7.50;;
5393;SDS011;2720;52.396;10.064;2022-12-24T04:16:12;30.40;;;7.80;;
5393;SDS011;2720;52.396;10.064;2022-12-24T04:18:40;28.07;;;7.93;;
5393;SDS011;2720;52.396;10.064;2022-12-24T04:21:08;21.97;;;6.47;;
5393;SDS011;2720;52.396;10.064;2022-12-24T04:23:36;29.73;;;5.90;;
5393;SDS011;2720;52.396;10.064;2022-12-24T04:26:06;19.63;;;5.23;;
5393;SDS011;2720;52.396;10.064;2022-12-24T04:28:35;27.40;;;5.83;;
5393;SDS011;2720;52.396;10.064;2022-12-24T04:31:03;16.77;;;5.53;;
5393;SDS011;2720;52.396;10.064;2022-12-24T04:33:32;28.83;;;5.03;;
5393;SDS011;2720;52.396;10.064;2022-12-24T04:36:00;18.67;;;5.77;;
5393;SDS011;2720;52.396;10.064;2022-12-24T04:38:28;32.53;;;5.57;;
5393;SDS011;2720;52.396;10.064;2022-12-24T04:40:58;22.60;;;5.60;;
5393;SDS011;2720;52.396;10.064;2022-12-24T04:43:27;38.33;;;6.77;;
5393;SDS011;2720;52.396;10.064;2022-12-24T04:45:55;23.80;;;5.87;;
5393;SDS011;2720;52.396;10.064;2022-12-24T04:48:22;30.70;;;5.53;;
5393;SDS011;2720;52.396;10.064;2022-12-24T04:50:49;35.03;;;5.77;;
5393;SDS011;2720;52.396;10.064;2022-12-24T04:53:16;26.87;;;4.93;;
5393;SDS011;2720;52.396;10.064;2022-12-24T04:55:43;27.30;;;5.17;;
5393;SDS011;2720;52.396;10.064;2022-12-24T04:58:11;34.03;;;6.37;;
5393;SDS011;2720;52.396;10.064;2022-12-24T05:00:40;34.13;;;4.87;;
5393;SDS011;2720;52.396;10.064;2022-12-24T05:03:07;23.03;;;5.10;;
5393;SDS011;2720;52.396;10.064;2022-12-24T05:05:34;33.30;;;4.83;;
5393;SDS011;2720;52.396;10.064;2022-12-24T05:08:01;26.50;;;5.87;;
5393;SDS011;2720;52.396;10.064;2022-12-24T05:10:28;22.80;;;4.70;;
5393;SDS011;2720;52.396;10.064;2022-12-24T05:12:55;22.87;;;5.13;;
5393;SDS011;2720;52.396;10.064;2022-12-24T05:15:22;22.50;;;5.70;;
5393;SDS011;2720;52.396;10.064;2022-12-24T05:17:51;12.07;;;4.50;;
5393;SDS011;2720;52.396;10.064;2022-12-24T05:20:18;21.07;;;5.13;;
5393;SDS011;2720;52.396;10.064;2022-12-24T05:22:45;16.50;;;3.50;;
5393;SDS011;2720;52.396;10.064;2022-12-24T05:25:31;13.37;;;3.80;;
5393;SDS011;2720;52.396;10.064;2022-12-24T05:28:20;28.13;;;3.87;;
5393;SDS011;2720;52.396;10.064;2022-12-24T05:30:47;20.90;;;4.17;;
5393;SDS011;2720;52.396;10.064;2022-12-24T05:33:15;12.13;;;3.70;;
5393;SDS011;2720;52.396;10.064;2022-12-24T05:35:42;16.83;;;4.27;;
5393;SDS011;2720;52.396;10.064;2022-12-24T05:38:09;32.93;;;4.83;;
5393;SDS011;2720;52.396;10.064;2022-12-24T05:40:36;20.10;;;4.90;;
5393;SDS011;2720;52.396;10.064;2022-12-24T05:43:03;13.43;;;2.70;;
5393;SDS011;2720;52.396;10.064;2022-12-24T05:45:30;17.53;;;3.10;;
5393;SDS011;2720;52.396;10.064;2022-12-24T05:47:57;19.77;;;3.30;;
5393;SDS011;2720;52.396;10.064;2022-12-24T05:50:25;23.47;;;3.67;;
5393;SDS011;2720;52.396;10.064;2022-12-24T05:52:52;16.90;;;2.67;;
5393;SDS011;2720;52.396;10.064;2022-12-24T05:55:19;14.30;;;3.90;;
5393;SDS011;2720;52.396;10.064;2022-12-24T05:57:46;17.87;;;4.40;;
5393;SDS011;2720;52.396;10.064;2022-12-24T06:00:14;15.20;;;3.47;;
5393;SDS011;2720;52.396;10.064;2022-12-24T06:02:41;21.40;;;4.10;;
5393;SDS011;2720;52.396;10.064;2022-12-24T06:05:08;14.50;;;3.10;;
5393;SDS011;2720;52.396;10.064;2022-12-24T06:07:36;19.73;;;2.93;;
5393;SDS011;2720;52.396;10.064;2022-12-24T06:10:04;16.13;;;3.97;;
5393;SDS011;2720;52.396;10.064;2022-12-24T06:12:32;11.80;;;3.00;;
5393;SDS011;2720;52.396;10.064;2022-12-24T06:14:59;24.60;;;4.13;;
5393;SDS011;2720;52.396;10.064;2022-12-24T06:17:26;28.13;;;4.20;;
5393;SDS011;2720;52.396;10.064;2022-12-24T06:19:53;32.03;;;4.50;;
5393;SDS011;2720;52.396;10.064;2022-12-24T06:22:20;24.27;;;3.73;;
5393;SDS011;2720;52.396;10.064;2022-12-24T06:24:49;18.53;;;3.43;;
5393;SDS011;2720;52.396;10.064;2022-12-24T06:27:16;32.17;;;3.30;;
5393;SDS011;2720;52.396;10.064;2022-12-24T06:29:43;17.40;;;3.00;;
5393;SDS011;2720;52.396;10.064;2022-12-24T06:32:10;20.63;;;5.00;;
5393;SDS011;2720;52.396;10.064;2022-12-24T06:34:37;13.43;;;3.77;;
5393;SDS011;2720;52.396;10.064;2022-12-24T06:37:04;21.10;;;4.70;;
5393;SDS011;2720;52.396;10.064;2022-12-24T06:39:31;19.90;;;3.37;;
5393;SDS011;2720;52.396;10.064;2022-12-24T06:41:59;25.80;;;6.13;;
5393;SDS011;2720;52.396;10.064;2022-12-24T06:44:26;34.83;;;4.70;;
5393;SDS011;2720;52.396;10.064;2022-12-24T06:46:53;32.93;;;4.90;;
5393;SDS011;2720;52.396;10.064;2022-12-24T06:49:20;24.03;;;6.00;;
5393;SDS011;2720;52.396;10.064;2022-12-24T06:51:47;25.83;;;4.63;;
5393;SDS011;2720;52.396;10.064;2022-12-24T06:54:14;17.00;;;3.27;;
5393;SDS011;2720;52.396;10.064;2022-12-24T06:56:41;53.80;;;6.37;;
5393;SDS011;2720;52.396;10.064;2022-12-24T06:59:10;20.03;;;4.37;;
5393;SDS011;2720;52.396;10.064;2022-12-24T07:01:37;34.40;;;3.87;;
5393;SDS011;2720;52.396;10.064;2022-12-24T07:04:04;28.07;;;4.10;;
5393;SDS011;2720;52.396;10.064;2022-12-24T07:06:31;19.67;;;3.70;;
5393;SDS011;2720;52.396;10.064;2022-12-24T07:08:58;24.87;;;4.00;;
5393;SDS011;2720;52.396;10.064;2022-12-24T07:11:25;27.37;;;5.27;;
5393;SDS011;2720;52.396;10.064;2022-12-24T07:13:52;22.27;;;4.17;;
5393;SDS011;2720;52.396;10.064;2022-12-24T07:16:22;26.37;;;4.77;;
5393;SDS011;2720;52.396;10.064;2022-12-24T07:18:49;18.60;;;4.13;;
5393;SDS011;2720;52.396;10.064;2022-12-24T07:21:15;24.80;;;3.67;;
5393;SDS011;2720;52.396;10.064;2022-12-24T07:23:42;28.37;;;5.60;;
5393;SDS011;2720;52.396;10.064;2022-12-24T07:26:10;23.80;;;4.17;;
5393;SDS011;2720;52.396;10.064;2022-12-24T07:28:37;22.90;;;4.67;;
5393;SDS011;2720;52.396;10.064;2022-12-24T07:31:04;19.03;;;3.80;;
5393;SDS011;2720;52.396;10.064;2022-12-24T07:33:32;24.93;;;4.13;;
5393;SDS011;2720;52.396;10.064;2022-12-24T07:36:00;15.13;;;3.27;;
5393;SDS011;2720;52.396;10.064;2022-12-24T07:38:30;17.60;;;4.40;;
5393;SDS011;2720;52.396;10.064;2022-12-24T07:40:57;23.70;;;4.47;;
5393;SDS011;2720;52.396;10.064;2022-12-24T07:43:24;23.10;;;3.70;;
5393;SDS011;2720;52.396;10.064;2022-12-24T07:45:53;18.57;;;3.80;;
5393;SDS011;2720;52.396;10.064;2022-12-24T07:48:20;11.70;;;2.93;;
5393;SDS011;2720;52.396;10.064;2022-12-24T07:50:49;15.53;;;3.43;;
5393;SDS011;2720;52.396;10.064;2022-12-24T07:53:16;15.80;;;4.50;;
5393;SDS011;2720;52.396;10.064;2022-12-24T07:55:43;36.73;;;5.47;;
5393;SDS011;2720;52.396;10.064;2022-12-24T07:58:10;22.40;;;3.10;;
5393;SDS011;2720;52.396;10.064;2022-12-24T08:00:37;27.93;;;4.80;;
5393;SDS011;2720;52.396;10.064;2022-12-24T08:03:04;29.57;;;3.37;;
5393;SDS011;2720;52.396;10.064;2022-12-24T08:05:32;27.33;;;3.67;;
5393;SDS011;2720;52.396;10.064;2022-12-24T08:08:01;19.30;;;4.00;;
5393;SDS011;2720;52.396;10.064;2022-12-24T08:10:28;17.40;;;3.57;;
5393;SDS011;2720;52.396;10.064;2022-12-24T08:12:55;19.40;;;3.90;;
5393;SDS011;2720;52.396;10.064;2022-12-24T08:15:22;9.10;;;3.60;;
5393;SDS011;2720;52.396;10.064;2022-12-24T08:17:49;17.33;;;3.80;;
5393;SDS011;2720;52.396;10.064;2022-12-24T08:20:17;17.07;;;4.03;;
5393;SDS011;2720;52.396;10.064;2022-12-24T08:22:44;16.97;;;3.60;;
5393;SDS011;2720;52.396;10.064;2022-12-24T08:25:12;25.03;;;3.40;;
5393;SDS011;2720;52.396;10.064;2022-12-24T08:27:39;20.80;;;4.30;;
5393;SDS011;2720;52.396;10.064;2022-12-24T08:30:06;24.03;;;3.70;;
5393;SDS011;2720;52.396;10.064;2022-12-24T08:32:34;26.37;;;4.27;;
5393;SDS011;2720;52.396;10.064;2022-12-24T08:35:01;26.67;;;4.40;;
5393;SDS011;2720;52.396;10.064;2022-12-24T08:37:28;20.50;;;4.03;;
5393;SDS011;2720;52.396;10.064;2022-12-24T08:39:55;14.53;;;3.57;;
5393;SDS011;2720;52.396;10.064;2022-12-24T08:42:23;24.23;;;5.00;;
5393;SDS011;2720;52.396;10.064;2022-12-24T08:44:50;16.47;;;4.10;;
5393;SDS011;2720;52.396;10.064;2022-12-24T08:47:17;28.43;;;5.53;;
5393;SDS011;2720;52.396;10.064;2022-12-24T08:49:44;23.50;;;4.77;;
5393;SDS011;2720;52.396;10.064;2022-12-24T08:52:11;19.27;;;5.00;;
5393;SDS011;2720;52.396;10.064;2022-12-24T08:54:38;16.23;;;3.10;;
5393;SDS011;2720;52.396;10.064;2022-12-24T08:57:05;26.63;;;4.43;;
5393;SDS011;2720;52.396;10.064;2022-12-24T08:59:33;26.97;;;4.70;;
5393;SDS011;2720;52.396;10.064;2022-12-24T09:02:00;24.23;;;3.57;;
5393;SDS011;2720;52.396;10.064;2022-12-24T09:04:27;19.90;;;4.60;;
5393;SDS011;2720;52.396;10.064;2022-12-24T09:06:54;19.50;;;4.87;;
5393;SDS011;2720;52.396;10.064;2022-12-24T09:09:21;36.40;;;4.23;;
5393;SDS011;2720;52.396;10.064;2022-12-24T09:11:48;11.83;;;3.50;;
5393;SDS011;2720;52.396;10.064;2022-12-24T09:14:15;20.87;;;4.30;;
5393;SDS011;2720;52.396;10.064;2022-12-24T09:16:43;33.23;;;5.03;;
5393;SDS011;2720;52.396;10.064;2022-12-24T09:19:10;28.13;;;3.70;;
5393;SDS011;2720;52.396;10.064;2022-12-24T09:21:37;20.73;;;3.83;;
5393;SDS011;2720;52.396;10.064;2022-12-24T09:24:05;19.03;;;3.80;;
5393;SDS011;2720;52.396;10.064;2022-12-24T09:26:32;32.90;;;5.30;;
5393;SDS011;2720;52.396;10.064;2022-12-24T09:29:00;12.50;;;3.80;;
5393;SDS011;2720;52.396;10.064;2022-12-24T09:31:28;19.23;;;4.20;;
5393;SDS011;2720;52.396;10.064;2022-12-24T09:33:56;15.43;;;3.63;;
5393;SDS011;2720;52.396;10.064;2022-12-24T09:36:23;26.40;;;3.77;;
5393;SDS011;2720;52.396;10.064;2022-12-24T09:38:50;14.77;;;4.90;;
5393;SDS011;2720;52.396;10.064;2022-12-24T09:41:23;30.23;;;5.00;;
5393;SDS011;2720;52.396;10.064;2022-12-24T09:43:58;22.10;;;5.87;;
5393;SDS011;2720;52.396;10.064;2022-12-24T09:46:29;23.33;;;6.23;;
5393;SDS011;2720;52.396;10.064;2022-12-24T09:49:02;40.00;;;9.60;;
5393;SDS011;2720;52.396;10.064;2022-12-24T09:51:33;24.23;;;7.10;;
5393;SDS011;2720;52.396;10.064;2022-12-24T09:54:05;17.43;;;6.43;;
5393;SDS011;2720;52.396;10.064;2022-12-24T09:56:38;30.73;;;6.90;;
5393;SDS011;2720;52.396;10.064;2022-12-24T09:59:08;33.77;;;8.37;;
5393;SDS011;2720;52.396;10.064;2022-12-24T10:01:39;25.97;;;7.60;;
5393;SDS011;2720;52.396;10.064;2022-12-24T10:04:10;18.13;;;6.80;;
5393;SDS011;2720;52.396;10.064;2022-12-24T10:06:39;48.80;;;9.47;;
5393;SDS011;2720;52.396;10.064;2022-12-24T10:09:18;30.10;;;9.10;;
5393;SDS011;2720;52.396;10.064;2022-12-24T10:11:55;25.13;;;8.30;;
5393;SDS011;2720;52.396;10.064;2022-12-24T10:14:36;30.87;;;9.27;;
5393;SDS011;2720;52.396;10.064;2022-12-24T10:17:14;27.93;;;8.73;;
5393;SDS011;2720;52.396;10.064;2022-12-24T10:19:58;32.10;;;7.73;;
5393;SDS011;2720;52.396;10.064;2022-12-24T10:22:41;44.17;;;7.20;;
5393;SDS011;2720;52.396;10.064;2022-12-24T10:25:20;27.40;;;6.97;;
5393;SDS011;2720;52.396;10.064;2022-12-24T10:27:52;19.80;;;6.80;;
5393;SDS011;2720;52.396;10.064;2022-12-24T10:30:23;49.37;;;8.10;;
5393;SDS011;2720;52.396;10.064;2022-12-24T10:32:50;23.43;;;5.63;;
5393;SDS011;2720;52.396;10.064;2022-12-24T10:35:21;26.67;;;6.10;;
5393;SDS011;2720;52.396;10.064;2022-12-24T10:37:51;34.83;;;12.07;;
5393;SDS011;2720;52.396;10.064;2022-12-24T10:40:24;25.70;;;6.73;;
5393;SDS011;2720;52.396;10.064;2022-12-24T10:42:57;21.13;;;6.93;;
5393;SDS011;2720;52.396;10.064;2022-12-24T10:45:25;20.17;;;5.60;;
5393;SDS011;2720;52.396;10.064;2022-12-24T10:47:57;22.03;;;6.67;;
5393;SDS011;2720;52.396;10.064;2022-12-24T10:50:31;34.97;;;6.40;;
5393;SDS011;2720;52.396;10.064;2022-12-24T10:53:04;15.20;;;5.00;;
5393;SDS011;2720;52.396;10.064;2022-12-24T10:55:39;27.30;;;6.33;;
5393;SDS011;2720;52.396;10.064;2022-12-24T10:58:11;20.10;;;6.00;;
5393;SDS011;2720;52.396;10.064;2022-12-24T11:00:41;18.40;;;5.10;;
5393;SDS011;2720;52.396;10.064;2022-12-24T11:03:20;29.23;;;6.20;;
5393;SDS011;2720;52.396;10.064;2022-12-24T11:06:04;27.77;;;6.60;;
5393;SDS011;2720;52.396;10.064;2022-12-24T11:08:37;17.40;;;6.10;;
5393;SDS011;2720;52.396;10.064;2022-12-24T11:11:07;27.50;;;4.93;;
5393;SDS011;2720;52.396;10.064;2022-12-24T11:13:37;17.47;;;5.57;;
5393;SDS011;2720;52.396;10.064;2022-12-24T11:16:07;24.60;;;6.20;;
5393;SDS011;2720;52.396;10.064;2022-12-24T11:18:36;18.00;;;4.20;;
5393;SDS011;2720;52.396;10.064;2022-12-24T11:21:05;19.80;;;4.13;;
5393;SDS011;2720;52.396;10.064;2022-12-24T11:23:33;26.40;;;4.20;;
5393;SDS011;2720;52.396;10.064;2022-12-24T11:26:01;18.70;;;4.50;;
5393;SDS011;2720;52.396;10.064;2022-12-24T11:28:29;22.00;;;4.57;;
5393;SDS011;2720;52.396;10.064;2022-12-24T11:31:01;24.73;;;3.93;;
5393;SDS011;2720;52.396;10.064;2022-12-24T11:33:30;17.40;;;3.37;;
5393;SDS011;2720;52.396;10.064;2022-12-24T11:36:01;16.87;;;3.90;;
5393;SDS011;2720;52.396;10.064;2022-12-24T11:38:31;15.17;;;3.30;;
5393;SDS011;2720;52.396;10.064;2022-12-24T11:40:59;19.97;;;3.80;;
5393;SDS011;2720;52.396;10.064;2022-12-24T11:43:27;17.23;;;3.63;;
5393;SDS011;2720;52.396;10.064;2022-12-24T11:46:15;13.30;;;4.63;;
5393;SDS011;2720;52.396;10.064;2022-12-24T11:48:43;12.20;;;3.70;;
5393;SDS011;2720;52.396;10.064;2022-12-24T11:51:21;15.47;;;3.30;;
5393;SDS011;2720;52.396;10.064;2022-12-24T11:53:52;21.07;;;3.90;;
5393;SDS011;2720;52.396;10.064;2022-12-24T11:56:27;28.90;;;4.30;;
5393;SDS011;2720;52.396;10.064;2022-12-24T11:58:58;17.93;;;3.70;;
5393;SDS011;2720;52.396;10.064;2022-12-24T12:01:29;18.60;;;3.30;;
5393;SDS011;2720;52.396;10.064;2022-12-24T12:03:57;7.93;;;4.23;;
5393;SDS011;2720;52.396;10.064;2022-12-24T12:06:27;9.83;;;4.17;;
5393;SDS011;2720;52.396;10.064;2022-12-24T12:08:58;17.57;;;4.50;;
5393;SDS011;2720;52.396;10.064;2022-12-24T12:11:27;16.97;;;4.87;;
5393;SDS011;2720;52.396;10.064;2022-12-24T12:13:55;14.50;;;4.40;;
5393;SDS011;2720;52.396;10.064;2022-12-24T12:16:24;20.90;;;5.10;;
5393;SDS011;2720;52.396;10.064;2022-12-24T12:18:56;22.40;;;5.10;;
5393;SDS011;2720;52.396;10.064;2022-12-24T12:21:26;16.40;;;4.97;;
5393;SDS011;2720;52.396;10.064;2022-12-24T12:23:55;23.47;;;5.93;;
5393;SDS011;2720;52.396;10.064;2022-12-24T12:26:25;17.43;;;4.30;;
5393;SDS011;2720;52.396;10.064;2022-12-24T12:28:54;13.40;;;3.90;;
5393;SDS011;2720;52.396;10.064;2022-12-24T12:31:22;14.60;;;3.93;;
5393;SDS011;2720;52.396;10.064;2022-12-24T12:33:53;12.50;;;3.10;;
5393;SDS011;2720;52.396;10.064;2022-12-24T12:36:23;8.33;;;2.80;;
5393;SDS011;2720;52.396;10.064;2022-12-24T12:38:52;12.77;;;3.03;;
5393;SDS011;2720;52.396;10.064;2022-12-24T12:44:24;5.53;;;2.97;;
5393;SDS011;2720;52.396;10.064;2022-12-24T12:47:12;14.83;;;2.70;;
5393;SDS011;2720;52.396;10.064;2022-12-24T12:49:53;10.17;;;2.63;;
5393;SDS011;2720;52.396;10.064;2022-12-24T12:52:29;22.10;;;3.63;;
5393;SDS011;2720;52.396;10.064;2022-12-24T12:55:12;10.90;;;3.00;;
5393;SDS011;2720;52.396;10.064;2022-12-24T12:57:50;20.77;;;4.23;;
5393;SDS011;2720;52.396;10.064;2022-12-24T13:00:22;9.70;;;4.20;;
5393;SDS011;2720;52.396;10.064;2022-12-24T13:02:59;17.53;;;4.77;;
5393;SDS011;2720;52.396;10.064;2022-12-24T13:11:56;8.03;;;1.57;;
5393;SDS011;2720;52.396;10.064;2022-12-24T13:14:40;3.77;;;2.23;;
5393;SDS011;2720;52.396;10.064;2022-12-24T13:17:26;9.83;;;2.40;;
5393;SDS011;2720;52.396;10.064;2022-12-24T13:20:17;13.37;;;3.57;;
5393;SDS011;2720;52.396;10.064;2022-12-24T13:22:50;8.77;;;1.97;;
5393;SDS011;2720;52.396;10.064;2022-12-24T13:25:23;6.80;;;1.60;;
5393;SDS011;2720;52.396;10.064;2022-12-24T13:27:54;11.53;;;1.40;;
5393;SDS011;2720;52.396;10.064;2022-12-24T13:30:33;6.90;;;2.40;;
5393;SDS011;2720;52.396;10.064;2022-12-24T13:33:02;9.27;;;2.63;;
5393;SDS011;2720;52.396;10.064;2022-12-24T13:35:33;9.87;;;3.40;;
5393;SDS011;2720;52.396;10.064;2022-12-24T13:44:22;8.20;;;2.60;;
5393;SDS011;2720;52.396;10.064;2022-12-24T13:47:02;13.20;;;3.47;;
5393;SDS011;2720;52.396;10.064;2022-12-24T13:49:47;13.03;;;4.30;;
5393;SDS011;2720;52.396;10.064;2022-12-24T13:52:17;13.03;;;4.00;;
5393;SDS011;2720;52.396;10.064;2022-12-24T13:54:59;25.13;;;8.10;;
5393;SDS011;2720;52.396;10.064;2022-12-24T13:57:33;11.30;;;4.10;;
5393;SDS011;2720;52.396;10.064;2022-12-24T14:00:04;16.03;;;5.33;;
5393;SDS011;2720;52.396;10.064;2022-12-24T14:02:50;7.20;;;2.53;;
5393;SDS011;2720;52.396;10.064;2022-12-24T14:05:22;16.23;;;1.70;;
5393;SDS011;2720;52.396;10.064;2022-12-24T14:07:52;1.90;;;0.90;;
5393;SDS011;2720;52.396;10.064;2022-12-24T14:10:22;6.00;;;1.60;;
5393;SDS011;2720;52.396;10.064;2022-12-24T14:12:51;1.63;;;1.10;;
5393;SDS011;2720;52.396;10.064;2022-12-24T14:18:11;1.67;;;0.80;;
5393;SDS011;2720;52.396;10.064;2022-12-24T14:20:42;4.37;;;1.77;;
5393;SDS011;2720;52.396;10.064;2022-12-24T14:23:16;2.00;;;1.60;;
5393;SDS011;2720;52.396;10.064;2022-12-24T14:25:53;3.10;;;2.20;;
5393;SDS011;2720;52.396;10.064;2022-12-24T14:28:21;8.63;;;2.23;;
5393;SDS011;2720;52.396;10.064;2022-12-24T14:30:58;7.73;;;2.40;;
5393;SDS011;2720;52.396;10.064;2022-12-24T14:33:31;8.83;;;1.97;;
5393;SDS011;2720;52.396;10.064;2022-12-24T14:36:00;4.47;;;1.93;;
5393;SDS011;2720;52.396;10.064;2022-12-24T14:38:27;7.50;;;1.90;;
5393;SDS011;2720;52.396;10.064;2022-12-24T14:40:58;3.10;;;1.87;;
5393;SDS011;2720;52.396;10.064;2022-12-24T14:43:37;2.97;;;1.80;;
5393;SDS011;2720;52.396;10.064;2022-12-24T14:46:16;5.10;;;2.10;;
5393;SDS011;2720;52.396;10.064;2022-12-24T14:48:52;11.13;;;2.23;;
5393;SDS011;2720;52.396;10.064;2022-12-24T14:51:23;8.53;;;2.30;;
5393;SDS011;2720;52.396;10.064;2022-12-24T14:54:02;2.50;;;1.77;;
5393;SDS011;2720;52.396;10.064;2022-12-24T14:56:38;5.50;;;2.70;;
5393;SDS011;2720;52.396;10.064;2022-12-24T14:59:12;13.97;;;3.07;;
5393;SDS011;2720;52.396;10.064;2022-12-24T15:01:40;5.50;;;2.80;;
5393;SDS011;2720;52.396;10.064;2022-12-24T15:04:14;9.27;;;3.10;;
5393;SDS011;2720;52.396;10.064;2022-12-24T15:06:44;9.03;;;3.90;;
5393;SDS011;2720;52.396;10.064;2022-12-24T15:09:16;9.00;;;3.37;;
5393;SDS011;2720;52.396;10.064;2022-12-24T15:11:45;7.80;;;3.43;;
5393;SDS011;2720;52.396;10.064;2022-12-24T15:14:13;10.20;;;3.50;;
5393;SDS011;2720;52.396;10.064;2022-12-24T15:16:41;9.80;;;3.77;;
5393;SDS011;2720;52.396;10.064;2022-12-24T15:19:21;7.63;;;3.50;;
5393;SDS011;2720;52.396;10.064;2022-12-24T15:21:51;8.83;;;4.33;;
5393;SDS011;2720;52.396;10.064;2022-12-24T15:24:23;13.33;;;3.13;;